sensor_id;sensor_type;location;lat;lon;timestamp;P1;durP1;ratioP1;P2;durP2;ratioP2
828;SDS011;396;52.558;13.188;2023-03-23T00:01:20;4.77;;;1.13;;
828;SDS011;396;52.558;13.188;2023-03-23T00:03:50;4.77;;;1.37;;
828;SDS011;396;52.558;13.188;2023-03-23T00:06:18;5.00;;;1.53;;
828;SDS011;396;52.558;13.188;2023-03-23T00:08:48;5.63;;;1.30;;
828;SDS011;396;52.558;13.188;2023-03-23T00:11:20;6.70;;;1.30;;
828;SDS011;396;52.558;13.188;2023-03-23T00:13:49;4.70;;;1.30;;
828;SDS011;396;52.558;13.188;2023-03-23T00:16:17;5.70;;;1.73;;
828;SDS011;396;52.558;13.188;2023-03-23T00:18:44;6.00;;;1.40;;
828;SDS011;396;52.558;13.188;2023-03-23T00:21:11;6.23;;;1.17;;
828;SDS011;396;52.558;13.188;2023-03-23T00:23:38;6.07;;;1.50;;
828;SDS011;396;52.558;13.188;2023-03-23T00:26:06;8.40;;;1.83;;
828;SDS011;396;52.558;13.188;2023-03-23T00:28:33;7.37;;;1.40;;
828;SDS011;396;52.558;13.188;2023-03-23T00:31:00;4.70;;;1.17;;
828;SDS011;396;52.558;13.188;2023-03-23T00:33:31;5.37;;;1.30;;
828;SDS011;396;52.558;13.188;2023-03-23T00:36:03;4.70;;;1.10;;
828;SDS011;396;52.558;13.188;2023-03-23T00:38:30;5.40;;;1.37;;
828;SDS011;396;52.558;13.188;2023-03-23T00:40:57;6.50;;;1.20;;
828;SDS011;396;52.558;13.188;2023-03-23T00:43:29;7.80;;;1.33;;
828;SDS011;396;52.558;13.188;2023-03-23T00:45:56;4.90;;;1.03;;
828;SDS011;396;52.558;13.188;2023-03-23T00:48:26;5.40;;;1.47;;
828;SDS011;396;52.558;13.188;2023-03-23T00:50:54;6.83;;;1.67;;
828;SDS011;396;52.558;13.188;2023-03-23T00:53:21;5.00;;;1.30;;
828;SDS011;396;52.558;13.188;2023-03-23T00:55:48;5.70;;;1.20;;
828;SDS011;396;52.558;13.188;2023-03-23T00:58:15;6.30;;;1.20;;
828;SDS011;396;52.558;13.188;2023-03-23T01:00:43;5.43;;;1.33;;
828;SDS011;396;52.558;13.188;2023-03-23T01:03:10;5.50;;;1.07;;
828;SDS011;396;52.558;13.188;2023-03-23T01:05:43;6.43;;;1.70;;
828;SDS011;396;52.558;13.188;2023-03-23T01:08:11;5.00;;;1.30;;
828;SDS011;396;52.558;13.188;2023-03-23T01:10:39;5.30;;;1.07;;
828;SDS011;396;52.558;13.188;2023-03-23T01:13:06;5.00;;;1.60;;
828;SDS011;396;52.558;13.188;2023-03-23T01:15:33;8.20;;;1.83;;
828;SDS011;396;52.558;13.188;2023-03-23T01:18:02;5.27;;;1.50;;
828;SDS011;396;52.558;13.188;2023-03-23T01:20:29;5.30;;;1.30;;
828;SDS011;396;52.558;13.188;2023-03-23T01:22:56;5.30;;;1.20;;
828;SDS011;396;52.558;13.188;2023-03-23T01:25:26;4.80;;;1.23;;
828;SDS011;396;52.558;13.188;2023-03-23T01:27:53;17.47;;;1.70;;
828;SDS011;396;52.558;13.188;2023-03-23T01:30:19;6.33;;;1.67;;
828;SDS011;396;52.558;13.188;2023-03-23T01:32:46;6.80;;;1.70;;
828;SDS011;396;52.558;13.188;2023-03-23T01:35:14;5.97;;;1.57;;
828;SDS011;396;52.558;13.188;2023-03-23T01:37:41;8.60;;;1.70;;
828;SDS011;396;52.558;13.188;2023-03-23T01:40:08;5.90;;;1.63;;
828;SDS011;396;52.558;13.188;2023-03-23T01:42:36;6.27;;;1.80;;
828;SDS011;396;52.558;13.188;2023-03-23T01:48:03;10.00;;;1.60;;
828;SDS011;396;52.558;13.188;2023-03-23T01:50:37;6.17;;;1.63;;
828;SDS011;396;52.558;13.188;2023-03-23T01:53:13;5.20;;;1.33;;
828;SDS011;396;52.558;13.188;2023-03-23T01:55:40;6.17;;;1.73;;
828;SDS011;396;52.558;13.188;2023-03-23T01:58:09;5.57;;;1.57;;
828;SDS011;396;52.558;13.188;2023-03-23T02:00:37;6.20;;;1.63;;
828;SDS011;396;52.558;13.188;2023-03-23T02:03:07;8.00;;;2.00;;
828;SDS011;396;52.558;13.188;2023-03-23T02:05:40;6.03;;;1.73;;
828;SDS011;396;52.558;13.188;2023-03-23T02:08:07;6.30;;;1.90;;
828;SDS011;396;52.558;13.188;2023-03-23T02:10:36;12.70;;;2.50;;
828;SDS011;396;52.558;13.188;2023-03-23T02:13:04;9.07;;;1.87;;
828;SDS011;396;52.558;13.188;2023-03-23T02:15:34;5.90;;;2.20;;
828;SDS011;396;52.558;13.188;2023-03-23T02:18:08;7.33;;;1.63;;
828;SDS011;396;52.558;13.188;2023-03-23T02:20:49;7.23;;;2.40;;
828;SDS011;396;52.558;13.188;2023-03-23T02:23:50;6.53;;;2.20;;
828;SDS011;396;52.558;13.188;2023-03-23T02:26:36;6.23;;;2.30;;
828;SDS011;396;52.558;13.188;2023-03-23T02:29:18;9.60;;;2.20;;
828;SDS011;396;52.558;13.188;2023-03-23T02:32:01;6.47;;;2.10;;
828;SDS011;396;52.558;13.188;2023-03-23T02:34:38;7.37;;;2.17;;
828;SDS011;396;52.558;13.188;2023-03-23T02:37:08;9.00;;;2.60;;
828;SDS011;396;52.558;13.188;2023-03-23T02:39:40;7.23;;;2.43;;
828;SDS011;396;52.558;13.188;2023-03-23T02:42:10;6.50;;;2.00;;
828;SDS011;396;52.558;13.188;2023-03-23T02:44:41;5.87;;;2.00;;
828;SDS011;396;52.558;13.188;2023-03-23T02:47:11;6.70;;;2.20;;
828;SDS011;396;52.558;13.188;2023-03-23T02:49:42;9.23;;;2.73;;
828;SDS011;396;52.558;13.188;2023-03-23T02:52:13;7.00;;;2.30;;
828;SDS011;396;52.558;13.188;2023-03-23T02:54:44;6.03;;;2.17;;
828;SDS011;396;52.558;13.188;2023-03-23T02:57:13;5.87;;;2.10;;
828;SDS011;396;52.558;13.188;2023-03-23T02:59:39;8.63;;;1.77;;
828;SDS011;396;52.558;13.188;2023-03-23T03:02:07;4.70;;;1.33;;
828;SDS011;396;52.558;13.188;2023-03-23T03:04:39;6.00;;;1.97;;
828;SDS011;396;52.558;13.188;2023-03-23T03:07:15;5.10;;;1.03;;
828;SDS011;396;52.558;13.188;2023-03-23T03:09:53;9.47;;;2.03;;
828;SDS011;396;52.558;13.188;2023-03-23T03:12:27;6.27;;;1.53;;
828;SDS011;396;52.558;13.188;2023-03-23T03:15:04;6.80;;;1.70;;
828;SDS011;396;52.558;13.188;2023-03-23T03:17:38;5.30;;;1.50;;
828;SDS011;396;52.558;13.188;2023-03-23T03:20:10;5.40;;;1.40;;
828;SDS011;396;52.558;13.188;2023-03-23T03:22:41;4.80;;;1.20;;
828;SDS011;396;52.558;13.188;2023-03-23T03:25:10;8.37;;;2.40;;
828;SDS011;396;52.558;13.188;2023-03-23T03:27:40;6.73;;;1.70;;
828;SDS011;396;52.558;13.188;2023-03-23T03:30:11;6.30;;;1.83;;
828;SDS011;396;52.558;13.188;2023-03-23T03:32:43;6.40;;;2.00;;
828;SDS011;396;52.558;13.188;2023-03-23T03:35:14;5.40;;;1.30;;
828;SDS011;396;52.558;13.188;2023-03-23T03:37:42;5.20;;;1.60;;
828;SDS011;396;52.558;13.188;2023-03-23T03:40:12;5.63;;;1.30;;
828;SDS011;396;52.558;13.188;2023-03-23T03:42:41;8.17;;;1.50;;
828;SDS011;396;52.558;13.188;2023-03-23T03:45:10;4.90;;;1.20;;
828;SDS011;396;52.558;13.188;2023-03-23T03:47:38;5.20;;;1.57;;
828;SDS011;396;52.558;13.188;2023-03-23T03:50:05;5.57;;;1.60;;
828;SDS011;396;52.558;13.188;2023-03-23T03:52:32;5.27;;;1.13;;
828;SDS011;396;52.558;13.188;2023-03-23T03:55:00;5.73;;;1.40;;
828;SDS011;396;52.558;13.188;2023-03-23T03:57:27;5.27;;;1.43;;
828;SDS011;396;52.558;13.188;2023-03-23T03:59:53;5.97;;;1.67;;
828;SDS011;396;52.558;13.188;2023-03-23T04:02:21;5.93;;;1.70;;
828;SDS011;396;52.558;13.188;2023-03-23T04:04:48;5.73;;;1.53;;
828;SDS011;396;52.558;13.188;2023-03-23T04:07:17;5.43;;;1.37;;
828;SDS011;396;52.558;13.188;2023-03-23T04:09:44;6.10;;;1.50;;
828;SDS011;396;52.558;13.188;2023-03-23T04:12:14;5.63;;;1.87;;
828;SDS011;396;52.558;13.188;2023-03-23T04:14:41;5.00;;;1.20;;
828;SDS011;396;52.558;13.188;2023-03-23T04:17:08;6.30;;;1.50;;
828;SDS011;396;52.558;13.188;2023-03-23T04:19:35;5.70;;;1.70;;
828;SDS011;396;52.558;13.188;2023-03-23T04:22:03;4.97;;;1.10;;
828;SDS011;396;52.558;13.188;2023-03-23T04:24:31;6.17;;;1.80;;
828;SDS011;396;52.558;13.188;2023-03-23T04:26:58;5.23;;;1.23;;
828;SDS011;396;52.558;13.188;2023-03-23T04:29:28;5.03;;;1.43;;
828;SDS011;396;52.558;13.188;2023-03-23T04:31:55;5.10;;;1.23;;
828;SDS011;396;52.558;13.188;2023-03-23T04:34:22;4.87;;;1.40;;
828;SDS011;396;52.558;13.188;2023-03-23T04:36:49;5.50;;;1.50;;
828;SDS011;396;52.558;13.188;2023-03-23T04:39:15;5.47;;;1.30;;
828;SDS011;396;52.558;13.188;2023-03-23T04:41:43;5.13;;;1.23;;
828;SDS011;396;52.558;13.188;2023-03-23T04:44:11;6.27;;;1.50;;
828;SDS011;396;52.558;13.188;2023-03-23T04:46:44;6.37;;;1.63;;
828;SDS011;396;52.558;13.188;2023-03-23T04:49:14;6.07;;;1.90;;
828;SDS011;396;52.558;13.188;2023-03-23T04:51:46;5.67;;;1.70;;
828;SDS011;396;52.558;13.188;2023-03-23T04:54:13;5.30;;;1.43;;
828;SDS011;396;52.558;13.188;2023-03-23T04:56:39;4.80;;;1.30;;
828;SDS011;396;52.558;13.188;2023-03-23T04:59:06;6.47;;;1.43;;
828;SDS011;396;52.558;13.188;2023-03-23T05:01:33;5.20;;;1.60;;
828;SDS011;396;52.558;13.188;2023-03-23T05:04:03;5.70;;;1.50;;
828;SDS011;396;52.558;13.188;2023-03-23T05:06:30;5.10;;;1.57;;
828;SDS011;396;52.558;13.188;2023-03-23T05:08:57;5.40;;;1.80;;
828;SDS011;396;52.558;13.188;2023-03-23T05:11:23;6.53;;;1.70;;
828;SDS011;396;52.558;13.188;2023-03-23T05:13:50;5.50;;;1.70;;
828;SDS011;396;52.558;13.188;2023-03-23T05:16:17;6.73;;;1.43;;
828;SDS011;396;52.558;13.188;2023-03-23T05:18:43;5.67;;;2.20;;
828;SDS011;396;52.558;13.188;2023-03-23T05:21:12;6.13;;;1.43;;
828;SDS011;396;52.558;13.188;2023-03-23T05:23:39;6.53;;;1.90;;
828;SDS011;396;52.558;13.188;2023-03-23T05:26:07;6.50;;;1.57;;
828;SDS011;396;52.558;13.188;2023-03-23T05:28:34;4.70;;;1.33;;
828;SDS011;396;52.558;13.188;2023-03-23T05:31:01;6.03;;;2.10;;
828;SDS011;396;52.558;13.188;2023-03-23T05:33:28;6.40;;;1.80;;
828;SDS011;396;52.558;13.188;2023-03-23T05:35:54;7.37;;;1.93;;
828;SDS011;396;52.558;13.188;2023-03-23T05:38:22;5.87;;;1.40;;
828;SDS011;396;52.558;13.188;2023-03-23T05:40:49;5.00;;;1.57;;
828;SDS011;396;52.558;13.188;2023-03-23T05:43:17;5.80;;;1.50;;
828;SDS011;396;52.558;13.188;2023-03-23T05:45:44;6.20;;;1.90;;
828;SDS011;396;52.558;13.188;2023-03-23T05:48:10;7.80;;;2.07;;
828;SDS011;396;52.558;13.188;2023-03-23T05:50:37;7.80;;;2.23;;
828;SDS011;396;52.558;13.188;2023-03-23T05:53:03;9.87;;;3.70;;
828;SDS011;396;52.558;13.188;2023-03-23T05:55:31;8.43;;;2.27;;
828;SDS011;396;52.558;13.188;2023-03-23T05:57:58;6.20;;;1.90;;
828;SDS011;396;52.558;13.188;2023-03-23T06:00:25;9.30;;;2.47;;
828;SDS011;396;52.558;13.188;2023-03-23T06:02:55;5.50;;;1.87;;
828;SDS011;396;52.558;13.188;2023-03-23T06:05:22;7.03;;;2.50;;
828;SDS011;396;52.558;13.188;2023-03-23T06:07:50;7.20;;;2.20;;
828;SDS011;396;52.558;13.188;2023-03-23T06:10:17;5.70;;;2.10;;
828;SDS011;396;52.558;13.188;2023-03-23T06:12:45;7.00;;;1.50;;
828;SDS011;396;52.558;13.188;2023-03-23T06:15:12;7.27;;;2.37;;
828;SDS011;396;52.558;13.188;2023-03-23T06:17:39;6.63;;;1.90;;
828;SDS011;396;52.558;13.188;2023-03-23T06:20:06;6.10;;;2.00;;
828;SDS011;396;52.558;13.188;2023-03-23T06:22:34;6.63;;;1.93;;
828;SDS011;396;52.558;13.188;2023-03-23T06:25:01;6.13;;;1.50;;
828;SDS011;396;52.558;13.188;2023-03-23T06:27:28;5.03;;;1.33;;
828;SDS011;396;52.558;13.188;2023-03-23T06:29:56;6.27;;;1.87;;
828;SDS011;396;52.558;13.188;2023-03-23T06:32:23;6.77;;;1.40;;
828;SDS011;396;52.558;13.188;2023-03-23T06:34:52;5.70;;;1.70;;
828;SDS011;396;52.558;13.188;2023-03-23T06:37:19;6.77;;;2.10;;
828;SDS011;396;52.558;13.188;2023-03-23T06:39:46;5.57;;;1.30;;
828;SDS011;396;52.558;13.188;2023-03-23T06:42:13;6.50;;;1.73;;
828;SDS011;396;52.558;13.188;2023-03-23T06:44:39;5.67;;;1.77;;
828;SDS011;396;52.558;13.188;2023-03-23T06:47:07;5.33;;;1.40;;
828;SDS011;396;52.558;13.188;2023-03-23T06:49:34;4.70;;;1.10;;
828;SDS011;396;52.558;13.188;2023-03-23T06:52:01;11.27;;;2.30;;
828;SDS011;396;52.558;13.188;2023-03-23T06:54:28;6.70;;;1.30;;
828;SDS011;396;52.558;13.188;2023-03-23T06:56:55;6.27;;;1.50;;
828;SDS011;396;52.558;13.188;2023-03-23T06:59:22;5.30;;;1.60;;
828;SDS011;396;52.558;13.188;2023-03-23T07:01:48;6.40;;;1.70;;
828;SDS011;396;52.558;13.188;2023-03-23T07:04:16;5.80;;;1.57;;
828;SDS011;396;52.558;13.188;2023-03-23T07:06:43;5.43;;;1.57;;
828;SDS011;396;52.558;13.188;2023-03-23T07:09:10;5.93;;;1.47;;
828;SDS011;396;52.558;13.188;2023-03-23T07:11:37;6.93;;;1.73;;
828;SDS011;396;52.558;13.188;2023-03-23T07:14:03;5.40;;;1.47;;
828;SDS011;396;52.558;13.188;2023-03-23T07:16:30;7.87;;;1.70;;
828;SDS011;396;52.558;13.188;2023-03-23T07:18:57;6.60;;;1.70;;
828;SDS011;396;52.558;13.188;2023-03-23T07:21:25;7.50;;;1.53;;
828;SDS011;396;52.558;13.188;2023-03-23T07:23:52;6.60;;;1.97;;
828;SDS011;396;52.558;13.188;2023-03-23T07:26:19;7.27;;;1.77;;
828;SDS011;396;52.558;13.188;2023-03-23T07:28:46;7.70;;;2.10;;
828;SDS011;396;52.558;13.188;2023-03-23T07:31:13;7.03;;;2.10;;
828;SDS011;396;52.558;13.188;2023-03-23T07:33:39;6.00;;;1.97;;
828;SDS011;396;52.558;13.188;2023-03-23T07:36:07;9.27;;;1.90;;
828;SDS011;396;52.558;13.188;2023-03-23T07:38:35;6.03;;;1.67;;
828;SDS011;396;52.558;13.188;2023-03-23T07:41:02;6.23;;;1.73;;
828;SDS011;396;52.558;13.188;2023-03-23T07:43:29;5.00;;;1.57;;
828;SDS011;396;52.558;13.188;2023-03-23T07:45:55;9.20;;;3.20;;
828;SDS011;396;52.558;13.188;2023-03-23T07:48:22;5.77;;;2.13;;
828;SDS011;396;52.558;13.188;2023-03-23T07:50:49;5.50;;;1.63;;
828;SDS011;396;52.558;13.188;2023-03-23T07:53:15;6.37;;;1.50;;
828;SDS011;396;52.558;13.188;2023-03-23T07:55:43;7.57;;;1.97;;
828;SDS011;396;52.558;13.188;2023-03-23T07:58:10;4.83;;;1.33;;
828;SDS011;396;52.558;13.188;2023-03-23T08:00:41;7.53;;;2.23;;
828;SDS011;396;52.558;13.188;2023-03-23T08:03:09;5.50;;;1.73;;
828;SDS011;396;52.558;13.188;2023-03-23T08:05:35;7.87;;;1.20;;
828;SDS011;396;52.558;13.188;2023-03-23T08:08:02;6.97;;;2.30;;
828;SDS011;396;52.558;13.188;2023-03-23T08:10:29;5.93;;;2.03;;
828;SDS011;396;52.558;13.188;2023-03-23T08:12:58;7.23;;;2.60;;
828;SDS011;396;52.558;13.188;2023-03-23T08:15:25;7.20;;;2.20;;
828;SDS011;396;52.558;13.188;2023-03-23T08:17:52;5.80;;;2.00;;
828;SDS011;396;52.558;13.188;2023-03-23T08:20:19;6.27;;;1.73;;
828;SDS011;396;52.558;13.188;2023-03-23T08:22:49;6.60;;;1.70;;
828;SDS011;396;52.558;13.188;2023-03-23T08:25:17;5.97;;;1.70;;
828;SDS011;396;52.558;13.188;2023-03-23T08:27:45;5.40;;;1.53;;
828;SDS011;396;52.558;13.188;2023-03-23T08:30:15;6.93;;;2.10;;
828;SDS011;396;52.558;13.188;2023-03-23T08:32:43;20.57;;;2.03;;
828;SDS011;396;52.558;13.188;2023-03-23T08:35:11;5.97;;;1.63;;
828;SDS011;396;52.558;13.188;2023-03-23T08:37:38;7.50;;;2.67;;
828;SDS011;396;52.558;13.188;2023-03-23T08:40:07;7.20;;;2.27;;
828;SDS011;396;52.558;13.188;2023-03-23T08:42:35;6.70;;;2.23;;
828;SDS011;396;52.558;13.188;2023-03-23T08:45:03;5.90;;;1.80;;
828;SDS011;396;52.558;13.188;2023-03-23T08:47:32;6.33;;;1.67;;
828;SDS011;396;52.558;13.188;2023-03-23T08:49:59;5.13;;;1.30;;
828;SDS011;396;52.558;13.188;2023-03-23T08:52:25;7.57;;;1.50;;
828;SDS011;396;52.558;13.188;2023-03-23T08:54:52;5.93;;;1.50;;
828;SDS011;396;52.558;13.188;2023-03-23T08:57:18;6.27;;;1.83;;
828;SDS011;396;52.558;13.188;2023-03-23T08:59:45;7.77;;;2.00;;
828;SDS011;396;52.558;13.188;2023-03-23T09:02:12;5.37;;;1.33;;
828;SDS011;396;52.558;13.188;2023-03-23T09:04:40;7.63;;;1.50;;
828;SDS011;396;52.558;13.188;2023-03-23T09:07:07;4.90;;;1.30;;
828;SDS011;396;52.558;13.188;2023-03-23T09:09:35;7.70;;;1.70;;
828;SDS011;396;52.558;13.188;2023-03-23T09:12:04;6.30;;;1.20;;
828;SDS011;396;52.558;13.188;2023-03-23T09:14:31;8.40;;;1.53;;
828;SDS011;396;52.558;13.188;2023-03-23T09:16:58;7.80;;;1.53;;
828;SDS011;396;52.558;13.188;2023-03-23T09:19:24;5.13;;;1.53;;
828;SDS011;396;52.558;13.188;2023-03-23T09:21:52;5.10;;;1.40;;
828;SDS011;396;52.558;13.188;2023-03-23T09:24:19;5.90;;;1.60;;
828;SDS011;396;52.558;13.188;2023-03-23T09:26:46;5.27;;;1.13;;
828;SDS011;396;52.558;13.188;2023-03-23T09:29:12;5.33;;;1.23;;
828;SDS011;396;52.558;13.188;2023-03-23T09:31:39;5.33;;;1.33;;
828;SDS011;396;52.558;13.188;2023-03-23T09:34:06;5.43;;;1.47;;
828;SDS011;396;52.558;13.188;2023-03-23T09:36:34;4.97;;;1.00;;
828;SDS011;396;52.558;13.188;2023-03-23T09:39:02;5.70;;;1.37;;
828;SDS011;396;52.558;13.188;2023-03-23T09:41:43;6.23;;;1.60;;
828;SDS011;396;52.558;13.188;2023-03-23T09:44:21;4.77;;;0.97;;
828;SDS011;396;52.558;13.188;2023-03-23T09:46:53;7.60;;;1.80;;
828;SDS011;396;52.558;13.188;2023-03-23T09:49:27;5.37;;;1.27;;
828;SDS011;396;52.558;13.188;2023-03-23T09:51:59;5.03;;;1.03;;
828;SDS011;396;52.558;13.188;2023-03-23T09:54:31;5.27;;;1.20;;
828;SDS011;396;52.558;13.188;2023-03-23T09:57:01;6.70;;;1.57;;
828;SDS011;396;52.558;13.188;2023-03-23T09:59:29;7.33;;;1.90;;
828;SDS011;396;52.558;13.188;2023-03-23T10:01:59;5.60;;;1.30;;
828;SDS011;396;52.558;13.188;2023-03-23T10:04:36;4.70;;;1.17;;
828;SDS011;396;52.558;13.188;2023-03-23T10:07:09;9.10;;;1.07;;
828;SDS011;396;52.558;13.188;2023-03-23T10:09:40;6.77;;;1.80;;
828;SDS011;396;52.558;13.188;2023-03-23T10:12:15;6.10;;;1.33;;
828;SDS011;396;52.558;13.188;2023-03-23T10:14:50;4.80;;;1.07;;
828;SDS011;396;52.558;13.188;2023-03-23T10:17:26;4.77;;;0.90;;
828;SDS011;396;52.558;13.188;2023-03-23T10:19:57;4.30;;;0.90;;
828;SDS011;396;52.558;13.188;2023-03-23T10:22:39;4.67;;;1.23;;
828;SDS011;396;52.558;13.188;2023-03-23T10:25:14;4.80;;;1.10;;
828;SDS011;396;52.558;13.188;2023-03-23T10:27:44;5.63;;;1.20;;
828;SDS011;396;52.558;13.188;2023-03-23T10:30:17;4.93;;;0.80;;
828;SDS011;396;52.558;13.188;2023-03-23T10:32:50;4.77;;;1.13;;
828;SDS011;396;52.558;13.188;2023-03-23T10:35:20;4.20;;;0.80;;
828;SDS011;396;52.558;13.188;2023-03-23T10:37:52;5.60;;;0.93;;
828;SDS011;396;52.558;13.188;2023-03-23T10:40:25;4.27;;;0.83;;
828;SDS011;396;52.558;13.188;2023-03-23T10:42:55;4.40;;;0.90;;
828;SDS011;396;52.558;13.188;2023-03-23T10:45:24;5.40;;;1.10;;
828;SDS011;396;52.558;13.188;2023-03-23T10:47:55;4.80;;;1.00;;
828;SDS011;396;52.558;13.188;2023-03-23T10:50:25;5.13;;;1.13;;
828;SDS011;396;52.558;13.188;2023-03-23T10:52:56;7.40;;;1.10;;
828;SDS011;396;52.558;13.188;2023-03-23T10:55:37;4.70;;;0.97;;
828;SDS011;396;52.558;13.188;2023-03-23T10:58:07;10.43;;;1.47;;
828;SDS011;396;52.558;13.188;2023-03-23T11:00:39;5.43;;;1.30;;
828;SDS011;396;52.558;13.188;2023-03-23T11:03:21;5.00;;;1.07;;
828;SDS011;396;52.558;13.188;2023-03-23T11:06:03;7.23;;;1.27;;
828;SDS011;396;52.558;13.188;2023-03-23T11:08:34;4.80;;;0.90;;
828;SDS011;396;52.558;13.188;2023-03-23T11:11:09;5.70;;;1.40;;
828;SDS011;396;52.558;13.188;2023-03-23T11:13:42;5.33;;;1.00;;
828;SDS011;396;52.558;13.188;2023-03-23T11:16:10;4.50;;;0.87;;
828;SDS011;396;52.558;13.188;2023-03-23T11:18:48;6.60;;;0.90;;
828;SDS011;396;52.558;13.188;2023-03-23T11:21:15;4.70;;;0.97;;
828;SDS011;396;52.558;13.188;2023-03-23T11:23:43;5.40;;;1.27;;
828;SDS011;396;52.558;13.188;2023-03-23T11:26:17;6.40;;;1.60;;
828;SDS011;396;52.558;13.188;2023-03-23T11:28:51;4.67;;;0.83;;
828;SDS011;396;52.558;13.188;2023-03-23T11:31:21;4.33;;;0.80;;
828;SDS011;396;52.558;13.188;2023-03-23T11:33:50;6.13;;;1.10;;
828;SDS011;396;52.558;13.188;2023-03-23T11:36:21;4.63;;;0.90;;
828;SDS011;396;52.558;13.188;2023-03-23T11:38:56;4.70;;;1.00;;
828;SDS011;396;52.558;13.188;2023-03-23T11:41:30;5.73;;;1.00;;
828;SDS011;396;52.558;13.188;2023-03-23T11:44:02;5.83;;;0.83;;
828;SDS011;396;52.558;13.188;2023-03-23T11:46:37;5.43;;;1.30;;
828;SDS011;396;52.558;13.188;2023-03-23T11:49:09;6.67;;;1.40;;
828;SDS011;396;52.558;13.188;2023-03-23T11:51:41;4.80;;;1.20;;
828;SDS011;396;52.558;13.188;2023-03-23T11:54:13;5.53;;;1.03;;
828;SDS011;396;52.558;13.188;2023-03-23T11:56:46;5.63;;;1.17;;
828;SDS011;396;52.558;13.188;2023-03-23T11:59:14;5.30;;;1.10;;
828;SDS011;396;52.558;13.188;2023-03-23T12:01:46;5.50;;;1.27;;
828;SDS011;396;52.558;13.188;2023-03-23T12:04:33;5.23;;;1.27;;
828;SDS011;396;52.558;13.188;2023-03-23T12:07:14;5.60;;;1.30;;
828;SDS011;396;52.558;13.188;2023-03-23T12:09:51;4.60;;;0.90;;
828;SDS011;396;52.558;13.188;2023-03-23T12:12:30;5.00;;;1.07;;
828;SDS011;396;52.558;13.188;2023-03-23T12:15:05;5.23;;;1.00;;
828;SDS011;396;52.558;13.188;2023-03-23T12:17:45;4.70;;;0.80;;
828;SDS011;396;52.558;13.188;2023-03-23T12:20:20;4.80;;;0.87;;
828;SDS011;396;52.558;13.188;2023-03-23T12:23:03;5.23;;;1.10;;
828;SDS011;396;52.558;13.188;2023-03-23T12:28:38;10.20;;;1.50;;
828;SDS011;396;52.558;13.188;2023-03-23T12:31:16;5.23;;;1.00;;
828;SDS011;396;52.558;13.188;2023-03-23T12:33:54;4.73;;;1.00;;
828;SDS011;396;52.558;13.188;2023-03-23T12:36:29;5.33;;;1.13;;
828;SDS011;396;52.558;13.188;2023-03-23T12:39:10;7.90;;;1.20;;
828;SDS011;396;52.558;13.188;2023-03-23T12:42:14;4.50;;;0.80;;
828;SDS011;396;52.558;13.188;2023-03-23T12:44:50;4.80;;;0.93;;
828;SDS011;396;52.558;13.188;2023-03-23T12:47:26;5.10;;;1.20;;
828;SDS011;396;52.558;13.188;2023-03-23T12:50:03;4.90;;;0.90;;
828;SDS011;396;52.558;13.188;2023-03-23T12:52:37;6.90;;;0.93;;
828;SDS011;396;52.558;13.188;2023-03-23T12:55:13;4.50;;;0.90;;
828;SDS011;396;52.558;13.188;2023-03-23T12:57:45;6.00;;;1.30;;
828;SDS011;396;52.558;13.188;2023-03-23T13:00:20;5.67;;;0.90;;
828;SDS011;396;52.558;13.188;2023-03-23T13:02:51;4.90;;;0.90;;
828;SDS011;396;52.558;13.188;2023-03-23T13:05:36;4.70;;;0.80;;
828;SDS011;396;52.558;13.188;2023-03-23T13:08:12;4.90;;;0.77;;
828;SDS011;396;52.558;13.188;2023-03-23T13:10:44;4.60;;;0.97;;
828;SDS011;396;52.558;13.188;2023-03-23T13:13:14;5.57;;;1.10;;
828;SDS011;396;52.558;13.188;2023-03-23T13:15:48;6.50;;;1.20;;
828;SDS011;396;52.558;13.188;2023-03-23T13:18:25;4.80;;;1.00;;
828;SDS011;396;52.558;13.188;2023-03-23T13:21:01;5.10;;;1.20;;
828;SDS011;396;52.558;13.188;2023-03-23T13:23:35;4.33;;;0.70;;
828;SDS011;396;52.558;13.188;2023-03-23T13:26:07;5.57;;;1.03;;
828;SDS011;396;52.558;13.188;2023-03-23T13:28:44;4.17;;;0.70;;
828;SDS011;396;52.558;13.188;2023-03-23T13:31:19;4.77;;;0.90;;
828;SDS011;396;52.558;13.188;2023-03-23T13:33:51;4.73;;;0.80;;
828;SDS011;396;52.558;13.188;2023-03-23T13:36:24;10.20;;;1.40;;
828;SDS011;396;52.558;13.188;2023-03-23T13:38:53;4.47;;;0.87;;
828;SDS011;396;52.558;13.188;2023-03-23T13:41:21;5.90;;;0.90;;
828;SDS011;396;52.558;13.188;2023-03-23T13:43:48;6.27;;;0.77;;
828;SDS011;396;52.558;13.188;2023-03-23T13:46:27;4.60;;;0.83;;
828;SDS011;396;52.558;13.188;2023-03-23T13:49:14;6.23;;;0.87;;
828;SDS011;396;52.558;13.188;2023-03-23T13:51:47;5.23;;;0.93;;
828;SDS011;396;52.558;13.188;2023-03-23T13:54:25;4.50;;;0.90;;
828;SDS011;396;52.558;13.188;2023-03-23T13:56:57;5.20;;;1.13;;
828;SDS011;396;52.558;13.188;2023-03-23T13:59:31;4.30;;;0.80;;
828;SDS011;396;52.558;13.188;2023-03-23T14:05:08;4.47;;;0.70;;
828;SDS011;396;52.558;13.188;2023-03-23T14:07:52;8.10;;;1.33;;
828;SDS011;396;52.558;13.188;2023-03-23T14:10:20;4.40;;;0.80;;
828;SDS011;396;52.558;13.188;2023-03-23T14:12:48;5.10;;;0.93;;
828;SDS011;396;52.558;13.188;2023-03-23T14:15:18;5.43;;;1.03;;
828;SDS011;396;52.558;13.188;2023-03-23T14:17:46;4.70;;;1.00;;
828;SDS011;396;52.558;13.188;2023-03-23T14:20:17;5.70;;;1.00;;
828;SDS011;396;52.558;13.188;2023-03-23T14:22:52;5.50;;;1.10;;
828;SDS011;396;52.558;13.188;2023-03-23T14:25:20;6.13;;;1.33;;
828;SDS011;396;52.558;13.188;2023-03-23T14:27:50;4.93;;;1.00;;
828;SDS011;396;52.558;13.188;2023-03-23T14:30:18;6.50;;;1.40;;
828;SDS011;396;52.558;13.188;2023-03-23T14:32:48;4.43;;;0.70;;
828;SDS011;396;52.558;13.188;2023-03-23T14:35:17;5.50;;;0.90;;
828;SDS011;396;52.558;13.188;2023-03-23T14:37:49;6.33;;;1.27;;
828;SDS011;396;52.558;13.188;2023-03-23T14:40:16;7.83;;;1.40;;
828;SDS011;396;52.558;13.188;2023-03-23T14:42:44;4.97;;;1.00;;
828;SDS011;396;52.558;13.188;2023-03-23T14:45:12;5.43;;;1.23;;
828;SDS011;396;52.558;13.188;2023-03-23T14:47:42;5.70;;;1.07;;
828;SDS011;396;52.558;13.188;2023-03-23T14:50:23;4.37;;;0.63;;
828;SDS011;396;52.558;13.188;2023-03-23T14:52:55;5.00;;;1.07;;
828;SDS011;396;52.558;13.188;2023-03-23T14:55:24;4.90;;;0.90;;
828;SDS011;396;52.558;13.188;2023-03-23T14:57:53;4.50;;;0.90;;
828;SDS011;396;52.558;13.188;2023-03-23T15:00:21;5.73;;;1.20;;
828;SDS011;396;52.558;13.188;2023-03-23T15:02:50;5.00;;;0.97;;
828;SDS011;396;52.558;13.188;2023-03-23T15:05:19;5.40;;;0.87;;
828;SDS011;396;52.558;13.188;2023-03-23T15:07:53;7.63;;;1.17;;
828;SDS011;396;52.558;13.188;2023-03-23T15:10:22;9.50;;;1.03;;
828;SDS011;396;52.558;13.188;2023-03-23T15:12:50;6.57;;;0.77;;
828;SDS011;396;52.558;13.188;2023-03-23T15:15:24;5.03;;;0.87;;
828;SDS011;396;52.558;13.188;2023-03-23T15:17:53;4.60;;;0.90;;
828;SDS011;396;52.558;13.188;2023-03-23T15:20:21;4.43;;;0.83;;
828;SDS011;396;52.558;13.188;2023-03-23T15:22:51;4.27;;;0.80;;
828;SDS011;396;52.558;13.188;2023-03-23T15:25:20;4.20;;;0.80;;
828;SDS011;396;52.558;13.188;2023-03-23T15:27:49;4.60;;;0.90;;
828;SDS011;396;52.558;13.188;2023-03-23T15:30:27;4.87;;;1.00;;
828;SDS011;396;52.558;13.188;2023-03-23T15:33:00;6.30;;;1.07;;
828;SDS011;396;52.558;13.188;2023-03-23T15:35:33;4.67;;;0.80;;
828;SDS011;396;52.558;13.188;2023-03-23T15:38:03;4.77;;;0.90;;
828;SDS011;396;52.558;13.188;2023-03-23T15:40:32;4.60;;;0.73;;
828;SDS011;396;52.558;13.188;2023-03-23T15:43:05;8.73;;;1.27;;
828;SDS011;396;52.558;13.188;2023-03-23T15:45:33;4.20;;;0.57;;
828;SDS011;396;52.558;13.188;2023-03-23T15:48:09;5.30;;;1.20;;
828;SDS011;396;52.558;13.188;2023-03-23T15:50:39;5.53;;;0.90;;
828;SDS011;396;52.558;13.188;2023-03-23T15:53:13;4.93;;;1.07;;
828;SDS011;396;52.558;13.188;2023-03-23T15:55:45;7.47;;;1.20;;
828;SDS011;396;52.558;13.188;2023-03-23T15:58:12;5.10;;;1.00;;